sensor_id;sensor_type;location;lat;lon;timestamp;P1;durP1;ratioP1;P2;durP2;ratioP2
3257;SDS011;1641;51.306;12.384;2023-11-21T00:02:17;11.80;;;4.53;;
3257;SDS011;1641;51.306;12.384;2023-11-21T00:04:42;15.65;;;9.50;;
3257;SDS011;1641;51.306;12.384;2023-11-21T00:07:13;9.80;;;5.50;;
3257;SDS011;1641;51.306;12.384;2023-11-21T00:12:05;10.52;;;4.72;;
3257;SDS011;1641;51.306;12.384;2023-11-21T00:14:30;15.52;;;9.27;;
3257;SDS011;1641;51.306;12.384;2023-11-21T00:16:56;10.57;;;5.97;;
3257;SDS011;1641;51.306;12.384;2023-11-21T00:19:21;7.85;;;4.15;;
3257;SDS011;1641;51.306;12.384;2023-11-21T00:21:46;10.88;;;6.03;;
3257;SDS011;1641;51.306;12.384;2023-11-21T00:24:12;5.60;;;2.97;;
3257;SDS011;1641;51.306;12.384;2023-11-21T00:26:38;7.82;;;6.05;;
3257;SDS011;1641;51.306;12.384;2023-11-21T00:29:04;6.75;;;4.35;;
3257;SDS011;1641;51.306;12.384;2023-11-21T00:31:33;5.43;;;3.15;;
3257;SDS011;1641;51.306;12.384;2023-11-21T00:34:16;6.03;;;3.65;;
3257;SDS011;1641;51.306;12.384;2023-11-21T00:36:44;5.57;;;3.55;;
3257;SDS011;1641;51.306;12.384;2023-11-21T00:39:12;5.97;;;2.95;;
3257;SDS011;1641;51.306;12.384;2023-11-21T00:41:40;8.77;;;3.03;;
3257;SDS011;1641;51.306;12.384;2023-11-21T00:44:06;5.45;;;3.00;;
3257;SDS011;1641;51.306;12.384;2023-11-21T00:46:32;6.93;;;3.45;;
3257;SDS011;1641;51.306;12.384;2023-11-21T00:49:13;10.00;;;6.65;;
3257;SDS011;1641;51.306;12.384;2023-11-21T00:51:38;13.75;;;7.70;;
3257;SDS011;1641;51.306;12.384;2023-11-21T00:54:03;15.77;;;9.77;;
3257;SDS011;1641;51.306;12.384;2023-11-21T00:56:32;10.63;;;6.65;;
3257;SDS011;1641;51.306;12.384;2023-11-21T00:59:01;8.30;;;3.35;;
3257;SDS011;1641;51.306;12.384;2023-11-21T01:01:27;4.35;;;3.08;;
3257;SDS011;1641;51.306;12.384;2023-11-21T01:03:55;8.93;;;5.03;;
3257;SDS011;1641;51.306;12.384;2023-11-21T01:06:21;8.35;;;5.15;;
3257;SDS011;1641;51.306;12.384;2023-11-21T01:08:46;6.88;;;4.13;;
3257;SDS011;1641;51.306;12.384;2023-11-21T01:11:11;15.48;;;6.93;;
3257;SDS011;1641;51.306;12.384;2023-11-21T01:13:37;18.35;;;6.28;;
3257;SDS011;1641;51.306;12.384;2023-11-21T01:16:07;6.78;;;4.13;;
3257;SDS011;1641;51.306;12.384;2023-11-21T01:18:33;12.75;;;5.57;;
3257;SDS011;1641;51.306;12.384;2023-11-21T01:20:58;10.45;;;5.47;;
3257;SDS011;1641;51.306;12.384;2023-11-21T01:23:25;11.98;;;5.80;;
3257;SDS011;1641;51.306;12.384;2023-11-21T01:25:50;14.18;;;7.40;;
3257;SDS011;1641;51.306;12.384;2023-11-21T01:28:16;14.95;;;7.63;;
3257;SDS011;1641;51.306;12.384;2023-11-21T01:30:42;11.63;;;6.18;;
3257;SDS011;1641;51.306;12.384;2023-11-21T01:33:07;13.35;;;7.65;;
3257;SDS011;1641;51.306;12.384;2023-11-21T01:35:33;10.73;;;6.18;;
3257;SDS011;1641;51.306;12.384;2023-11-21T01:37:59;18.85;;;6.32;;
3257;SDS011;1641;51.306;12.384;2023-11-21T01:40:24;13.25;;;5.40;;
3257;SDS011;1641;51.306;12.384;2023-11-21T01:42:49;7.32;;;4.85;;
3257;SDS011;1641;51.306;12.384;2023-11-21T01:45:15;11.50;;;4.25;;
3257;SDS011;1641;51.306;12.384;2023-11-21T01:47:41;8.75;;;4.80;;
3257;SDS011;1641;51.306;12.384;2023-11-21T01:50:08;5.22;;;2.58;;
3257;SDS011;1641;51.306;12.384;2023-11-21T01:52:35;6.55;;;3.40;;
3257;SDS011;1641;51.306;12.384;2023-11-21T01:55:01;9.93;;;4.22;;
3257;SDS011;1641;51.306;12.384;2023-11-21T01:57:28;11.48;;;3.78;;
3257;SDS011;1641;51.306;12.384;2023-11-21T01:59:54;10.93;;;4.35;;
3257;SDS011;1641;51.306;12.384;2023-11-21T02:02:20;6.07;;;3.75;;
3257;SDS011;1641;51.306;12.384;2023-11-21T02:04:46;7.93;;;4.00;;
3257;SDS011;1641;51.306;12.384;2023-11-21T02:07:11;4.55;;;3.15;;
3257;SDS011;1641;51.306;12.384;2023-11-21T02:09:36;5.80;;;2.95;;
3257;SDS011;1641;51.306;12.384;2023-11-21T02:12:07;5.85;;;2.92;;
3257;SDS011;1641;51.306;12.384;2023-11-21T02:14:34;8.68;;;4.32;;
3257;SDS011;1641;51.306;12.384;2023-11-21T02:17:00;6.38;;;2.78;;
3257;SDS011;1641;51.306;12.384;2023-11-21T02:19:26;6.80;;;3.42;;
3257;SDS011;1641;51.306;12.384;2023-11-21T02:21:52;8.25;;;3.08;;
3257;SDS011;1641;51.306;12.384;2023-11-21T02:24:21;7.60;;;4.03;;
3257;SDS011;1641;51.306;12.384;2023-11-21T02:26:47;5.78;;;3.03;;
3257;SDS011;1641;51.306;12.384;2023-11-21T02:29:13;8.85;;;3.67;;
3257;SDS011;1641;51.306;12.384;2023-11-21T02:31:41;8.25;;;3.67;;
3257;SDS011;1641;51.306;12.384;2023-11-21T02:34:15;6.25;;;2.72;;
3257;SDS011;1641;51.306;12.384;2023-11-21T02:36:42;10.20;;;3.30;;
3257;SDS011;1641;51.306;12.384;2023-11-21T02:39:08;5.82;;;3.45;;
3257;SDS011;1641;51.306;12.384;2023-11-21T02:41:34;6.70;;;3.33;;
3257;SDS011;1641;51.306;12.384;2023-11-21T02:43:59;9.63;;;3.63;;
3257;SDS011;1641;51.306;12.384;2023-11-21T02:46:25;11.07;;;5.55;;
3257;SDS011;1641;51.306;12.384;2023-11-21T02:48:50;5.35;;;3.55;;
3257;SDS011;1641;51.306;12.384;2023-11-21T02:51:16;15.40;;;5.82;;
3257;SDS011;1641;51.306;12.384;2023-11-21T02:53:41;7.15;;;4.18;;
3257;SDS011;1641;51.306;12.384;2023-11-21T02:56:06;13.07;;;5.03;;
3257;SDS011;1641;51.306;12.384;2023-11-21T02:58:32;16.20;;;8.32;;
3257;SDS011;1641;51.306;12.384;2023-11-21T03:00:57;11.30;;;6.47;;
3257;SDS011;1641;51.306;12.384;2023-11-21T03:03:23;10.95;;;7.05;;
3257;SDS011;1641;51.306;12.384;2023-11-21T03:05:49;38.65;;;20.88;;
3257;SDS011;1641;51.306;12.384;2023-11-21T03:08:14;32.67;;;15.95;;
3257;SDS011;1641;51.306;12.384;2023-11-21T03:10:40;44.25;;;24.38;;
3257;SDS011;1641;51.306;12.384;2023-11-21T03:13:05;50.05;;;28.95;;
3257;SDS011;1641;51.306;12.384;2023-11-21T03:15:30;24.55;;;15.98;;
3257;SDS011;1641;51.306;12.384;2023-11-21T03:17:57;73.40;;;37.72;;
3257;SDS011;1641;51.306;12.384;2023-11-21T03:20:22;35.22;;;19.33;;
3257;SDS011;1641;51.306;12.384;2023-11-21T03:22:48;45.40;;;25.02;;
3257;SDS011;1641;51.306;12.384;2023-11-21T03:25:13;34.22;;;18.83;;
3257;SDS011;1641;51.306;12.384;2023-11-21T03:27:38;14.07;;;7.30;;
3257;SDS011;1641;51.306;12.384;2023-11-21T03:30:04;7.57;;;5.97;;
3257;SDS011;1641;51.306;12.384;2023-11-21T03:32:31;24.27;;;14.00;;
3257;SDS011;1641;51.306;12.384;2023-11-21T03:34:58;14.98;;;5.93;;
3257;SDS011;1641;51.306;12.384;2023-11-21T03:37:24;36.35;;;15.10;;
3257;SDS011;1641;51.306;12.384;2023-11-21T03:39:50;16.45;;;6.45;;
3257;SDS011;1641;51.306;12.384;2023-11-21T03:42:16;12.18;;;6.53;;
3257;SDS011;1641;51.306;12.384;2023-11-21T03:44:41;13.82;;;10.00;;
3257;SDS011;1641;51.306;12.384;2023-11-21T03:47:06;17.08;;;11.25;;
3257;SDS011;1641;51.306;12.384;2023-11-21T03:49:31;11.25;;;7.28;;
3257;SDS011;1641;51.306;12.384;2023-11-21T03:51:57;13.05;;;8.02;;
3257;SDS011;1641;51.306;12.384;2023-11-21T03:54:22;12.25;;;6.75;;
3257;SDS011;1641;51.306;12.384;2023-11-21T03:56:47;7.78;;;3.60;;
3257;SDS011;1641;51.306;12.384;2023-11-21T03:59:13;8.63;;;5.28;;
3257;SDS011;1641;51.306;12.384;2023-11-21T04:01:38;11.75;;;4.00;;
3257;SDS011;1641;51.306;12.384;2023-11-21T04:04:03;11.93;;;7.32;;
3257;SDS011;1641;51.306;12.384;2023-11-21T04:06:29;15.43;;;10.60;;
3257;SDS011;1641;51.306;12.384;2023-11-21T04:08:54;20.85;;;12.02;;
3257;SDS011;1641;51.306;12.384;2023-11-21T04:11:19;18.58;;;12.25;;
3257;SDS011;1641;51.306;12.384;2023-11-21T04:13:45;14.55;;;7.88;;
3257;SDS011;1641;51.306;12.384;2023-11-21T04:16:11;14.38;;;5.57;;
3257;SDS011;1641;51.306;12.384;2023-11-21T04:18:38;24.70;;;11.68;;
3257;SDS011;1641;51.306;12.384;2023-11-21T04:21:07;17.80;;;9.57;;
3257;SDS011;1641;51.306;12.384;2023-11-21T04:23:33;16.08;;;7.07;;
3257;SDS011;1641;51.306;12.384;2023-11-21T04:25:58;14.88;;;8.43;;
3257;SDS011;1641;51.306;12.384;2023-11-21T04:28:23;10.23;;;4.65;;
3257;SDS011;1641;51.306;12.384;2023-11-21T04:30:49;6.80;;;3.97;;
3257;SDS011;1641;51.306;12.384;2023-11-21T04:33:15;14.63;;;6.53;;
3257;SDS011;1641;51.306;12.384;2023-11-21T04:35:41;9.80;;;4.53;;
3257;SDS011;1641;51.306;12.384;2023-11-21T04:38:06;10.43;;;5.57;;
3257;SDS011;1641;51.306;12.384;2023-11-21T04:40:31;12.40;;;5.63;;
3257;SDS011;1641;51.306;12.384;2023-11-21T04:42:57;10.30;;;4.10;;
3257;SDS011;1641;51.306;12.384;2023-11-21T04:45:22;11.18;;;4.90;;
3257;SDS011;1641;51.306;12.384;2023-11-21T04:47:47;14.38;;;6.38;;
3257;SDS011;1641;51.306;12.384;2023-11-21T04:50:13;7.07;;;4.45;;
3257;SDS011;1641;51.306;12.384;2023-11-21T04:52:38;12.43;;;4.65;;
3257;SDS011;1641;51.306;12.384;2023-11-21T04:55:04;8.23;;;4.70;;
3257;SDS011;1641;51.306;12.384;2023-11-21T04:57:31;9.32;;;5.75;;
3257;SDS011;1641;51.306;12.384;2023-11-21T04:59:57;13.85;;;5.82;;
3257;SDS011;1641;51.306;12.384;2023-11-21T05:02:22;10.40;;;5.75;;
3257;SDS011;1641;51.306;12.384;2023-11-21T05:04:48;14.05;;;6.72;;
3257;SDS011;1641;51.306;12.384;2023-11-21T05:07:13;16.38;;;5.82;;
3257;SDS011;1641;51.306;12.384;2023-11-21T05:09:42;13.25;;;6.30;;
3257;SDS011;1641;51.306;12.384;2023-11-21T05:12:11;14.15;;;7.43;;
3257;SDS011;1641;51.306;12.384;2023-11-21T05:14:37;13.75;;;6.15;;
3257;SDS011;1641;51.306;12.384;2023-11-21T05:17:02;12.02;;;5.43;;
3257;SDS011;1641;51.306;12.384;2023-11-21T05:19:29;13.18;;;5.68;;
3257;SDS011;1641;51.306;12.384;2023-11-21T05:21:54;11.75;;;5.07;;
3257;SDS011;1641;51.306;12.384;2023-11-21T05:24:20;9.73;;;5.00;;
3257;SDS011;1641;51.306;12.384;2023-11-21T05:26:45;11.63;;;6.22;;
3257;SDS011;1641;51.306;12.384;2023-11-21T05:29:11;10.00;;;5.90;;
3257;SDS011;1641;51.306;12.384;2023-11-21T05:31:36;11.88;;;5.90;;
3257;SDS011;1641;51.306;12.384;2023-11-21T05:34:02;16.98;;;6.65;;
3257;SDS011;1641;51.306;12.384;2023-11-21T05:36:30;12.35;;;5.97;;
3257;SDS011;1641;51.306;12.384;2023-11-21T05:38:55;29.10;;;18.38;;
3257;SDS011;1641;51.306;12.384;2023-11-21T05:41:20;13.00;;;7.35;;
3257;SDS011;1641;51.306;12.384;2023-11-21T05:43:46;14.43;;;5.97;;
3257;SDS011;1641;51.306;12.384;2023-11-21T05:46:11;11.65;;;6.13;;
3257;SDS011;1641;51.306;12.384;2023-11-21T05:48:38;11.60;;;5.60;;
3257;SDS011;1641;51.306;12.384;2023-11-21T05:51:04;10.85;;;6.78;;
3257;SDS011;1641;51.306;12.384;2023-11-21T05:53:34;12.38;;;6.53;;
3257;SDS011;1641;51.306;12.384;2023-11-21T05:55:59;15.40;;;6.22;;
3257;SDS011;1641;51.306;12.384;2023-11-21T05:58:28;13.38;;;6.30;;
3257;SDS011;1641;51.306;12.384;2023-11-21T06:00:53;13.93;;;6.45;;
3257;SDS011;1641;51.306;12.384;2023-11-21T06:03:18;11.50;;;6.25;;
3257;SDS011;1641;51.306;12.384;2023-11-21T06:05:43;16.42;;;6.05;;
3257;SDS011;1641;51.306;12.384;2023-11-21T06:08:09;14.10;;;6.65;;
3257;SDS011;1641;51.306;12.384;2023-11-21T06:10:35;11.32;;;6.43;;
3257;SDS011;1641;51.306;12.384;2023-11-21T06:13:00;14.65;;;6.00;;
3257;SDS011;1641;51.306;12.384;2023-11-21T06:15:26;10.55;;;6.68;;
3257;SDS011;1641;51.306;12.384;2023-11-21T06:17:51;12.32;;;6.03;;
3257;SDS011;1641;51.306;12.384;2023-11-21T06:20:17;13.63;;;6.82;;
3257;SDS011;1641;51.306;12.384;2023-11-21T06:22:44;12.10;;;7.72;;
3257;SDS011;1641;51.306;12.384;2023-11-21T06:25:12;19.17;;;8.63;;
3257;SDS011;1641;51.306;12.384;2023-11-21T06:27:39;10.65;;;7.22;;
3257;SDS011;1641;51.306;12.384;2023-11-21T06:30:09;21.48;;;7.88;;
3257;SDS011;1641;51.306;12.384;2023-11-21T06:32:36;14.02;;;7.63;;
3257;SDS011;1641;51.306;12.384;2023-11-21T06:35:02;17.33;;;8.98;;
3257;SDS011;1641;51.306;12.384;2023-11-21T06:37:29;15.10;;;6.75;;
3257;SDS011;1641;51.306;12.384;2023-11-21T06:39:56;23.05;;;7.60;;
3257;SDS011;1641;51.306;12.384;2023-11-21T06:42:23;19.40;;;8.65;;
3257;SDS011;1641;51.306;12.384;2023-11-21T06:44:49;13.70;;;6.82;;
3257;SDS011;1641;51.306;12.384;2023-11-21T06:47:19;15.98;;;8.00;;
3257;SDS011;1641;51.306;12.384;2023-11-21T06:49:45;17.30;;;8.25;;
3257;SDS011;1641;51.306;12.384;2023-11-21T06:52:12;18.48;;;9.13;;
3257;SDS011;1641;51.306;12.384;2023-11-21T06:54:38;24.20;;;10.32;;
3257;SDS011;1641;51.306;12.384;2023-11-21T06:57:03;23.95;;;8.55;;
3257;SDS011;1641;51.306;12.384;2023-11-21T06:59:28;20.00;;;8.80;;
3257;SDS011;1641;51.306;12.384;2023-11-21T07:01:54;17.60;;;8.05;;
3257;SDS011;1641;51.306;12.384;2023-11-21T07:04:19;20.05;;;8.88;;
3257;SDS011;1641;51.306;12.384;2023-11-21T07:06:45;16.65;;;8.35;;
3257;SDS011;1641;51.306;12.384;2023-11-21T07:09:13;20.60;;;10.02;;
3257;SDS011;1641;51.306;12.384;2023-11-21T07:11:40;17.77;;;7.78;;
3257;SDS011;1641;51.306;12.384;2023-11-21T07:14:06;13.90;;;9.50;;
3257;SDS011;1641;51.306;12.384;2023-11-21T07:16:35;21.20;;;11.07;;
3257;SDS011;1641;51.306;12.384;2023-11-21T07:19:02;18.48;;;10.73;;
3257;SDS011;1641;51.306;12.384;2023-11-21T07:21:31;23.08;;;9.95;;
3257;SDS011;1641;51.306;12.384;2023-11-21T07:23:56;19.75;;;9.25;;
3257;SDS011;1641;51.306;12.384;2023-11-21T07:26:24;19.35;;;10.25;;
3257;SDS011;1641;51.306;12.384;2023-11-21T07:28:51;16.25;;;9.10;;
3257;SDS011;1641;51.306;12.384;2023-11-21T07:31:16;19.75;;;9.88;;
3257;SDS011;1641;51.306;12.384;2023-11-21T07:33:41;14.43;;;8.48;;
3257;SDS011;1641;51.306;12.384;2023-11-21T07:36:07;16.58;;;9.57;;
3257;SDS011;1641;51.306;12.384;2023-11-21T07:38:33;22.10;;;11.98;;
3257;SDS011;1641;51.306;12.384;2023-11-21T07:40:58;20.33;;;11.80;;
3257;SDS011;1641;51.306;12.384;2023-11-21T07:43:26;29.63;;;14.02;;
3257;SDS011;1641;51.306;12.384;2023-11-21T07:45:52;28.95;;;14.23;;
3257;SDS011;1641;51.306;12.384;2023-11-21T07:48:17;26.42;;;14.93;;
3257;SDS011;1641;51.306;12.384;2023-11-21T07:50:42;32.42;;;15.02;;
3257;SDS011;1641;51.306;12.384;2023-11-21T07:53:08;41.38;;;14.90;;
3257;SDS011;1641;51.306;12.384;2023-11-21T07:55:34;32.97;;;16.70;;
3257;SDS011;1641;51.306;12.384;2023-11-21T07:58:04;43.33;;;18.05;;
3257;SDS011;1641;51.306;12.384;2023-11-21T08:00:29;44.20;;;18.45;;
3257;SDS011;1641;51.306;12.384;2023-11-21T08:02:56;40.53;;;18.80;;
3257;SDS011;1641;51.306;12.384;2023-11-21T08:05:21;35.20;;;16.73;;
3257;SDS011;1641;51.306;12.384;2023-11-21T08:07:46;34.35;;;15.45;;
3257;SDS011;1641;51.306;12.384;2023-11-21T08:10:17;29.30;;;13.70;;
3257;SDS011;1641;51.306;12.384;2023-11-21T08:12:42;27.83;;;14.50;;
3257;SDS011;1641;51.306;12.384;2023-11-21T08:15:08;23.05;;;11.45;;
3257;SDS011;1641;51.306;12.384;2023-11-21T08:17:34;20.30;;;10.20;;
3257;SDS011;1641;51.306;12.384;2023-11-21T08:20:00;20.48;;;12.70;;
3257;SDS011;1641;51.306;12.384;2023-11-21T08:22:25;24.70;;;11.90;;
3257;SDS011;1641;51.306;12.384;2023-11-21T08:24:50;21.00;;;10.43;;
3257;SDS011;1641;51.306;12.384;2023-11-21T08:27:16;24.35;;;11.50;;
3257;SDS011;1641;51.306;12.384;2023-11-21T08:29:42;19.10;;;10.60;;
3257;SDS011;1641;51.306;12.384;2023-11-21T08:32:08;18.50;;;11.68;;
3257;SDS011;1641;51.306;12.384;2023-11-21T08:34:33;22.30;;;13.07;;
3257;SDS011;1641;51.306;12.384;2023-11-21T08:36:58;21.30;;;11.15;;
3257;SDS011;1641;51.306;12.384;2023-11-21T08:39:24;21.08;;;13.73;;
3257;SDS011;1641;51.306;12.384;2023-11-21T08:41:50;16.85;;;11.50;;
3257;SDS011;1641;51.306;12.384;2023-11-21T08:44:18;29.02;;;13.40;;
3257;SDS011;1641;51.306;12.384;2023-11-21T08:46:44;25.00;;;11.52;;
3257;SDS011;1641;51.306;12.384;2023-11-21T08:49:12;19.30;;;10.50;;
3257;SDS011;1641;51.306;12.384;2023-11-21T08:51:39;20.35;;;11.90;;
3257;SDS011;1641;51.306;12.384;2023-11-21T08:54:04;22.75;;;11.98;;
3257;SDS011;1641;51.306;12.384;2023-11-21T08:56:33;19.42;;;11.52;;
3257;SDS011;1641;51.306;12.384;2023-11-21T08:59:01;19.10;;;9.30;;
3257;SDS011;1641;51.306;12.384;2023-11-21T09:01:28;17.40;;;10.48;;
3257;SDS011;1641;51.306;12.384;2023-11-21T09:03:53;17.23;;;9.25;;
3257;SDS011;1641;51.306;12.384;2023-11-21T09:06:19;17.80;;;10.30;;
3257;SDS011;1641;51.306;12.384;2023-11-21T09:08:44;17.20;;;7.85;;
3257;SDS011;1641;51.306;12.384;2023-11-21T09:11:09;18.05;;;10.43;;
3257;SDS011;1641;51.306;12.384;2023-11-21T09:13:35;16.55;;;10.35;;
3257;SDS011;1641;51.306;12.384;2023-11-21T09:16:00;14.38;;;9.57;;
3257;SDS011;1641;51.306;12.384;2023-11-21T09:18:26;17.35;;;9.65;;
3257;SDS011;1641;51.306;12.384;2023-11-21T09:20:51;14.35;;;9.43;;
3257;SDS011;1641;51.306;12.384;2023-11-21T09:23:16;13.48;;;8.75;;
3257;SDS011;1641;51.306;12.384;2023-11-21T09:25:42;10.02;;;6.47;;
3257;SDS011;1641;51.306;12.384;2023-11-21T09:28:11;13.77;;;8.45;;
3257;SDS011;1641;51.306;12.384;2023-11-21T09:30:36;13.90;;;9.80;;
3257;SDS011;1641;51.306;12.384;2023-11-21T09:33:02;12.13;;;8.27;;
3257;SDS011;1641;51.306;12.384;2023-11-21T09:35:27;11.98;;;6.63;;
3257;SDS011;1641;51.306;12.384;2023-11-21T09:37:53;11.32;;;7.72;;
3257;SDS011;1641;51.306;12.384;2023-11-21T09:40:20;12.73;;;7.85;;
3257;SDS011;1641;51.306;12.384;2023-11-21T09:42:54;16.80;;;8.45;;
3257;SDS011;1641;51.306;12.384;2023-11-21T09:45:25;14.07;;;8.90;;
3257;SDS011;1641;51.306;12.384;2023-11-21T09:47:55;11.95;;;7.80;;
3257;SDS011;1641;51.306;12.384;2023-11-21T09:50:21;11.98;;;8.93;;
3257;SDS011;1641;51.306;12.384;2023-11-21T09:55:39;13.07;;;9.02;;
3257;SDS011;1641;51.306;12.384;2023-11-21T09:58:10;13.30;;;8.57;;
3257;SDS011;1641;51.306;12.384;2023-11-21T10:00:42;14.00;;;9.23;;
3257;SDS011;1641;51.306;12.384;2023-11-21T10:03:09;18.33;;;8.38;;
3257;SDS011;1641;51.306;12.384;2023-11-21T10:05:35;12.10;;;8.32;;
3257;SDS011;1641;51.306;12.384;2023-11-21T10:08:01;11.50;;;8.57;;
3257;SDS011;1641;51.306;12.384;2023-11-21T10:10:30;11.27;;;7.68;;
3257;SDS011;1641;51.306;12.384;2023-11-21T10:12:57;11.88;;;7.70;;
3257;SDS011;1641;51.306;12.384;2023-11-21T10:15:27;11.50;;;8.05;;
3257;SDS011;1641;51.306;12.384;2023-11-21T10:17:54;15.20;;;9.38;;
3257;SDS011;1641;51.306;12.384;2023-11-21T10:20:20;14.00;;;7.18;;
3257;SDS011;1641;51.306;12.384;2023-11-21T10:22:46;12.00;;;9.05;;
3257;SDS011;1641;51.306;12.384;2023-11-21T10:25:12;9.23;;;5.80;;
3257;SDS011;1641;51.306;12.384;2023-11-21T10:27:39;11.50;;;8.60;;
3257;SDS011;1641;51.306;12.384;2023-11-21T10:30:06;10.80;;;7.00;;
3257;SDS011;1641;51.306;12.384;2023-11-21T10:32:33;9.43;;;6.85;;
3257;SDS011;1641;51.306;12.384;2023-11-21T10:34:59;8.70;;;5.75;;
3257;SDS011;1641;51.306;12.384;2023-11-21T10:37:25;13.93;;;7.55;;
3257;SDS011;1641;51.306;12.384;2023-11-21T10:39:56;9.02;;;5.90;;
3257;SDS011;1641;51.306;12.384;2023-11-21T10:42:23;10.57;;;7.27;;
3257;SDS011;1641;51.306;12.384;2023-11-21T10:44:49;7.75;;;5.57;;
3257;SDS011;1641;51.306;12.384;2023-11-21T10:47:14;8.27;;;6.47;;
3257;SDS011;1641;51.306;12.384;2023-11-21T10:49:40;9.90;;;6.28;;
3257;SDS011;1641;51.306;12.384;2023-11-21T10:52:05;10.15;;;6.88;;
3257;SDS011;1641;51.306;12.384;2023-11-21T10:54:31;12.18;;;6.43;;
3257;SDS011;1641;51.306;12.384;2023-11-21T10:56:57;7.60;;;5.53;;
3257;SDS011;1641;51.306;12.384;2023-11-21T10:59:24;9.82;;;6.30;;
3257;SDS011;1641;51.306;12.384;2023-11-21T11:01:53;10.43;;;5.95;;
3257;SDS011;1641;51.306;12.384;2023-11-21T11:04:19;11.10;;;6.63;;
3257;SDS011;1641;51.306;12.384;2023-11-21T11:06:49;9.27;;;5.97;;
3257;SDS011;1641;51.306;12.384;2023-11-21T11:09:18;9.95;;;6.88;;
3257;SDS011;1641;51.306;12.384;2023-11-21T11:11:44;8.25;;;5.07;;
3257;SDS011;1641;51.306;12.384;2023-11-21T11:14:11;10.13;;;6.90;;
3257;SDS011;1641;51.306;12.384;2023-11-21T11:16:38;10.38;;;6.80;;
3257;SDS011;1641;51.306;12.384;2023-11-21T11:19:06;11.02;;;6.72;;
3257;SDS011;1641;51.306;12.384;2023-11-21T11:21:37;13.77;;;7.05;;
3257;SDS011;1641;51.306;12.384;2023-11-21T11:24:28;13.65;;;9.05;;
3257;SDS011;1641;51.306;12.384;2023-11-21T11:27:21;9.23;;;6.30;;
3257;SDS011;1641;51.306;12.384;2023-11-21T11:29:55;8.07;;;4.78;;
3257;SDS011;1641;51.306;12.384;2023-11-21T11:35:14;11.82;;;8.13;;
3257;SDS011;1641;51.306;12.384;2023-11-21T11:37:45;12.68;;;6.75;;
3257;SDS011;1641;51.306;12.384;2023-11-21T11:40:11;10.43;;;6.70;;
3257;SDS011;1641;51.306;12.384;2023-11-21T11:42:36;13.57;;;7.90;;
3257;SDS011;1641;51.306;12.384;2023-11-21T11:45:02;13.43;;;8.02;;
3257;SDS011;1641;51.306;12.384;2023-11-21T11:47:42;14.90;;;7.57;;
3257;SDS011;1641;51.306;12.384;2023-11-21T11:50:09;14.80;;;9.77;;
3257;SDS011;1641;51.306;12.384;2023-11-21T11:52:42;16.55;;;10.02;;
3257;SDS011;1641;51.306;12.384;2023-11-21T11:55:12;18.98;;;11.05;;
3257;SDS011;1641;51.306;12.384;2023-11-21T11:57:39;21.93;;;10.10;;
3257;SDS011;1641;51.306;12.384;2023-11-21T12:00:12;26.30;;;12.57;;
3257;SDS011;1641;51.306;12.384;2023-11-21T12:02:46;24.75;;;12.75;;
3257;SDS011;1641;51.306;12.384;2023-11-21T12:05:14;22.02;;;11.82;;
3257;SDS011;1641;51.306;12.384;2023-11-21T12:07:50;27.15;;;12.93;;
3257;SDS011;1641;51.306;12.384;2023-11-21T12:10:20;20.45;;;11.98;;
3257;SDS011;1641;51.306;12.384;2023-11-21T12:12:49;25.02;;;12.88;;
3257;SDS011;1641;51.306;12.384;2023-11-21T12:15:17;15.25;;;8.52;;
3257;SDS011;1641;51.306;12.384;2023-11-21T12:17:43;15.63;;;8.43;;
3257;SDS011;1641;51.306;12.384;2023-11-21T12:20:10;14.70;;;7.68;;
3257;SDS011;1641;51.306;12.384;2023-11-21T12:22:48;12.95;;;8.05;;
3257;SDS011;1641;51.306;12.384;2023-11-21T12:25:15;10.45;;;5.40;;
3257;SDS011;1641;51.306;12.384;2023-11-21T12:27:47;10.80;;;6.38;;
3257;SDS011;1641;51.306;12.384;2023-11-21T12:30:18;11.23;;;7.03;;
3257;SDS011;1641;51.306;12.384;2023-11-21T12:32:45;9.35;;;5.65;;
3257;SDS011;1641;51.306;12.384;2023-11-21T12:35:13;10.80;;;6.07;;
3257;SDS011;1641;51.306;12.384;2023-11-21T12:37:40;12.73;;;6.28;;
3257;SDS011;1641;51.306;12.384;2023-11-21T12:40:07;10.00;;;5.18;;
3257;SDS011;1641;51.306;12.384;2023-11-21T12:42:33;8.95;;;5.97;;
3257;SDS011;1641;51.306;12.384;2023-11-21T12:45:09;7.80;;;4.40;;
3257;SDS011;1641;51.306;12.384;2023-11-21T12:47:42;7.63;;;5.22;;
3257;SDS011;1641;51.306;12.384;2023-11-21T12:50:08;7.63;;;4.95;;
3257;SDS011;1641;51.306;12.384;2023-11-21T12:52:39;6.72;;;4.15;;
3257;SDS011;1641;51.306;12.384;2023-11-21T12:55:06;8.18;;;5.97;;
3257;SDS011;1641;51.306;12.384;2023-11-21T12:57:34;12.57;;;7.03;;
3257;SDS011;1641;51.306;12.384;2023-11-21T13:00:03;11.40;;;8.30;;
3257;SDS011;1641;51.306;12.384;2023-11-21T13:02:38;22.45;;;12.75;;
3257;SDS011;1641;51.306;12.384;2023-11-21T13:05:03;19.33;;;8.68;;
3257;SDS011;1641;51.306;12.384;2023-11-21T13:07:41;17.33;;;10.00;;
3257;SDS011;1641;51.306;12.384;2023-11-21T13:10:11;26.85;;;13.68;;
3257;SDS011;1641;51.306;12.384;2023-11-21T13:12:44;22.60;;;12.13;;
3257;SDS011;1641;51.306;12.384;2023-11-21T13:15:16;22.05;;;12.60;;
3257;SDS011;1641;51.306;12.384;2023-11-21T13:17:45;20.42;;;11.20;;
3257;SDS011;1641;51.306;12.384;2023-11-21T13:20:11;25.40;;;13.38;;
3257;SDS011;1641;51.306;12.384;2023-11-21T13:22:50;25.60;;;11.75;;
3257;SDS011;1641;51.306;12.384;2023-11-21T13:25:20;23.52;;;12.23;;
3257;SDS011;1641;51.306;12.384;2023-11-21T13:27:46;22.45;;;13.25;;
3257;SDS011;1641;51.306;12.384;2023-11-21T13:30:15;23.60;;;13.32;;
3257;SDS011;1641;51.306;12.384;2023-11-21T13:32:44;22.92;;;13.32;;
3257;SDS011;1641;51.306;12.384;2023-11-21T13:35:11;23.95;;;12.38;;
3257;SDS011;1641;51.306;12.384;2023-11-21T13:37:46;23.42;;;13.27;;
3257;SDS011;1641;51.306;12.384;2023-11-21T13:40:14;20.10;;;12.50;;
3257;SDS011;1641;51.306;12.384;2023-11-21T13:42:45;19.00;;;11.52;;
3257;SDS011;1641;51.306;12.384;2023-11-21T13:45:10;18.40;;;10.55;;
3257;SDS011;1641;51.306;12.384;2023-11-21T13:47:37;17.75;;;9.32;;
3257;SDS011;1641;51.306;12.384;2023-11-21T13:50:03;18.45;;;10.65;;
3257;SDS011;1641;51.306;12.384;2023-11-21T13:52:33;17.58;;;10.18;;
3257;SDS011;1641;51.306;12.384;2023-11-21T13:55:00;15.45;;;10.02;;
3257;SDS011;1641;51.306;12.384;2023-11-21T13:57:29;18.58;;;9.95;;
3257;SDS011;1641;51.306;12.384;2023-11-21T13:59:55;17.33;;;9.70;;
3257;SDS011;1641;51.306;12.384;2023-11-21T14:02:20;19.83;;;10.10;;
3257;SDS011;1641;51.306;12.384;2023-11-21T14:04:53;18.98;;;9.98;;
3257;SDS011;1641;51.306;12.384;2023-11-21T14:07:23;16.17;;;8.85;;
3257;SDS011;1641;51.306;12.384;2023-11-21T14:10:00;15.80;;;10.15;;
3257;SDS011;1641;51.306;12.384;2023-11-21T14:12:32;17.58;;;10.15;;
3257;SDS011;1641;51.306;12.384;2023-11-21T14:15:01;14.45;;;9.07;;
3257;SDS011;1641;51.306;12.384;2023-11-21T14:17:30;17.13;;;8.77;;
3257;SDS011;1641;51.306;12.384;2023-11-21T14:19:55;12.73;;;8.40;;
3257;SDS011;1641;51.306;12.384;2023-11-21T14:22:21;15.18;;;9.75;;
3257;SDS011;1641;51.306;12.384;2023-11-21T14:24:46;12.02;;;6.78;;
3257;SDS011;1641;51.306;12.384;2023-11-21T14:27:15;10.60;;;6.28;;
3257;SDS011;1641;51.306;12.384;2023-11-21T14:29:40;10.52;;;5.18;;
3257;SDS011;1641;51.306;12.384;2023-11-21T14:32:08;7.97;;;5.70;;
3257;SDS011;1641;51.306;12.384;2023-11-21T14:34:34;7.40;;;5.38;;
3257;SDS011;1641;51.306;12.384;2023-11-21T14:36:59;8.63;;;5.70;;
3257;SDS011;1641;51.306;12.384;2023-11-21T14:39:27;9.55;;;5.07;;
3257;SDS011;1641;51.306;12.384;2023-11-21T14:41:53;7.35;;;4.60;;
3257;SDS011;1641;51.306;12.384;2023-11-21T14:44:21;6.25;;;4.95;;
3257;SDS011;1641;51.306;12.384;2023-11-21T14:46:51;5.88;;;3.97;;
3257;SDS011;1641;51.306;12.384;2023-11-21T14:49:17;4.22;;;2.88;;
3257;SDS011;1641;51.306;12.384;2023-11-21T14:51:46;6.10;;;3.78;;
3257;SDS011;1641;51.306;12.384;2023-11-21T14:54:42;7.50;;;4.57;;
3257;SDS011;1641;51.306;12.384;2023-11-21T14:57:14;7.30;;;4.53;;